sensor_id;sensor_type;location;lat;lon;timestamp;P1;durP1;ratioP1;P2;durP2;ratioP2
73938;SDS011;62291;47.554;8.504;2022-12-15T00:01:00;419.23;;;32.45;;
73938;SDS011;62291;47.554;8.504;2022-12-15T00:03:44;120.22;;;28.05;;
73938;SDS011;62291;47.554;8.504;2022-12-15T00:06:29;166.65;;;29.45;;
73938;SDS011;62291;47.554;8.504;2022-12-15T00:09:13;63.08;;;23.67;;
73938;SDS011;62291;47.554;8.504;2022-12-15T00:11:58;33.65;;;19.10;;
73938;SDS011;62291;47.554;8.504;2022-12-15T00:14:42;35.65;;;19.88;;
73938;SDS011;62291;47.554;8.504;2022-12-15T00:17:26;42.75;;;21.75;;
73938;SDS011;62291;47.554;8.504;2022-12-15T00:20:11;39.92;;;22.33;;
73938;SDS011;62291;47.554;8.504;2022-12-15T00:22:55;37.10;;;20.27;;
73938;SDS011;62291;47.554;8.504;2022-12-15T00:25:39;49.28;;;24.05;;
73938;SDS011;62291;47.554;8.504;2022-12-15T00:28:23;52.90;;;24.42;;
73938;SDS011;62291;47.554;8.504;2022-12-15T00:31:07;36.40;;;21.20;;
73938;SDS011;62291;47.554;8.504;2022-12-15T00:33:51;47.08;;;21.92;;
73938;SDS011;62291;47.554;8.504;2022-12-15T00:36:35;82.97;;;22.63;;
73938;SDS011;62291;47.554;8.504;2022-12-15T00:39:20;42.85;;;21.58;;
73938;SDS011;62291;47.554;8.504;2022-12-15T00:41:45;42.85;;;22.52;;
73938;SDS011;62291;47.554;8.504;2022-12-15T00:44:11;59.85;;;24.15;;
73938;SDS011;62291;47.554;8.504;2022-12-15T00:46:36;55.05;;;25.15;;
73938;SDS011;62291;47.554;8.504;2022-12-15T00:49:21;83.32;;;27.05;;
73938;SDS011;62291;47.554;8.504;2022-12-15T00:52:06;183.88;;;29.85;;
73938;SDS011;62291;47.554;8.504;2022-12-15T00:54:51;336.27;;;34.00;;
73938;SDS011;62291;47.554;8.504;2022-12-15T00:57:35;66.40;;;27.48;;
73938;SDS011;62291;47.554;8.504;2022-12-15T01:00:19;114.20;;;24.83;;
73938;SDS011;62291;47.554;8.504;2022-12-15T01:03:10;36.80;;;20.70;;
73938;SDS011;62291;47.554;8.504;2022-12-15T01:06:14;129.95;;;28.08;;
73938;SDS011;62291;47.554;8.504;2022-12-15T01:09:01;336.80;;;29.10;;
73938;SDS011;62291;47.554;8.504;2022-12-15T01:11:46;487.70;;;41.13;;
73938;SDS011;62291;47.554;8.504;2022-12-15T01:14:30;137.32;;;25.25;;
73938;SDS011;62291;47.554;8.504;2022-12-15T01:17:15;52.90;;;21.42;;
73938;SDS011;62291;47.554;8.504;2022-12-15T01:20:00;164.48;;;26.92;;
73938;SDS011;62291;47.554;8.504;2022-12-15T01:22:42;140.93;;;23.55;;
73938;SDS011;62291;47.554;8.504;2022-12-15T01:25:19;30.20;;;18.98;;
73938;SDS011;62291;47.554;8.504;2022-12-15T01:27:48;29.67;;;18.20;;
73938;SDS011;62291;47.554;8.504;2022-12-15T01:30:15;32.38;;;19.02;;
73938;SDS011;62291;47.554;8.504;2022-12-15T01:32:43;38.35;;;21.25;;
73938;SDS011;62291;47.554;8.504;2022-12-15T01:35:09;32.83;;;20.30;;
73938;SDS011;62291;47.554;8.504;2022-12-15T01:37:35;72.85;;;24.10;;
73938;SDS011;62291;47.554;8.504;2022-12-15T01:40:02;71.05;;;22.30;;
73938;SDS011;62291;47.554;8.504;2022-12-15T01:42:47;43.88;;;20.83;;
73938;SDS011;62291;47.554;8.504;2022-12-15T01:47:51;39.75;;;20.67;;
73938;SDS011;62291;47.554;8.504;2022-12-15T01:50:21;36.92;;;22.50;;
73938;SDS011;62291;47.554;8.504;2022-12-15T01:52:48;129.63;;;25.88;;
73938;SDS011;62291;47.554;8.504;2022-12-15T01:55:16;74.65;;;23.30;;
73938;SDS011;62291;47.554;8.504;2022-12-15T01:57:43;351.23;;;39.28;;
73938;SDS011;62291;47.554;8.504;2022-12-15T02:00:10;417.67;;;39.47;;
73938;SDS011;62291;47.554;8.504;2022-12-15T02:02:37;448.52;;;42.58;;
73938;SDS011;62291;47.554;8.504;2022-12-15T02:05:04;702.60;;;52.75;;
73938;SDS011;62291;47.554;8.504;2022-12-15T02:07:31;92.13;;;22.20;;
73938;SDS011;62291;47.554;8.504;2022-12-15T02:09:58;119.53;;;24.85;;
73938;SDS011;62291;47.554;8.504;2022-12-15T02:12:30;596.83;;;47.20;;
73938;SDS011;62291;47.554;8.504;2022-12-15T02:20:32;78.80;;;24.73;;
73938;SDS011;62291;47.554;8.504;2022-12-15T02:31:26;628.42;;;53.17;;
73938;SDS011;62291;47.554;8.504;2022-12-15T02:37:00;846.58;;;60.55;;
73938;SDS011;62291;47.554;8.504;2022-12-15T02:39:41;851.40;;;63.85;;
73938;SDS011;62291;47.554;8.504;2022-12-15T02:42:08;592.90;;;48.38;;
73938;SDS011;62291;47.554;8.504;2022-12-15T02:44:37;659.92;;;52.97;;
73938;SDS011;62291;47.554;8.504;2022-12-15T02:55:43;196.45;;;27.35;;
73938;SDS011;62291;47.554;8.504;2022-12-15T03:00:42;59.00;;;24.38;;
73938;SDS011;62291;47.554;8.504;2022-12-15T03:03:15;42.45;;;21.50;;
73938;SDS011;62291;47.554;8.504;2022-12-15T03:05:45;34.35;;;20.02;;
73938;SDS011;62291;47.554;8.504;2022-12-15T03:08:12;46.08;;;21.17;;
73938;SDS011;62291;47.554;8.504;2022-12-15T03:10:38;40.90;;;21.63;;
73938;SDS011;62291;47.554;8.504;2022-12-15T03:13:03;34.97;;;19.35;;
73938;SDS011;62291;47.554;8.504;2022-12-15T03:15:29;41.55;;;20.05;;
73938;SDS011;62291;47.554;8.504;2022-12-15T03:17:55;27.33;;;17.25;;
73938;SDS011;62291;47.554;8.504;2022-12-15T03:20:21;39.03;;;19.35;;
73938;SDS011;62291;47.554;8.504;2022-12-15T03:22:46;181.50;;;27.55;;
73938;SDS011;62291;47.554;8.504;2022-12-15T03:25:12;163.00;;;29.83;;
73938;SDS011;62291;47.554;8.504;2022-12-15T03:27:38;99.45;;;25.02;;
73938;SDS011;62291;47.554;8.504;2022-12-15T03:30:04;239.18;;;32.17;;
73938;SDS011;62291;47.554;8.504;2022-12-15T03:32:30;308.30;;;30.95;;
73938;SDS011;62291;47.554;8.504;2022-12-15T03:34:56;89.93;;;19.55;;
73938;SDS011;62291;47.554;8.504;2022-12-15T03:37:21;234.13;;;26.38;;
73938;SDS011;62291;47.554;8.504;2022-12-15T03:39:47;30.50;;;18.33;;
73938;SDS011;62291;47.554;8.504;2022-12-15T03:42:13;32.63;;;18.13;;
73938;SDS011;62291;47.554;8.504;2022-12-15T03:44:38;30.08;;;16.70;;
73938;SDS011;62291;47.554;8.504;2022-12-15T03:47:04;32.08;;;18.08;;
73938;SDS011;62291;47.554;8.504;2022-12-15T03:49:30;24.73;;;15.88;;
73938;SDS011;62291;47.554;8.504;2022-12-15T03:51:55;29.15;;;16.98;;
73938;SDS011;62291;47.554;8.504;2022-12-15T03:54:24;29.85;;;17.20;;
73938;SDS011;62291;47.554;8.504;2022-12-15T03:56:49;24.83;;;14.68;;
73938;SDS011;62291;47.554;8.504;2022-12-15T03:59:15;17.83;;;12.75;;
73938;SDS011;62291;47.554;8.504;2022-12-15T04:01:44;20.65;;;14.02;;
73938;SDS011;62291;47.554;8.504;2022-12-15T04:04:12;21.42;;;14.02;;
73938;SDS011;62291;47.554;8.504;2022-12-15T04:06:37;55.60;;;19.95;;
73938;SDS011;62291;47.554;8.504;2022-12-15T04:09:03;22.73;;;14.93;;
73938;SDS011;62291;47.554;8.504;2022-12-15T04:11:29;77.88;;;22.58;;
73938;SDS011;62291;47.554;8.504;2022-12-15T04:13:54;32.55;;;18.88;;
73938;SDS011;62291;47.554;8.504;2022-12-15T04:16:20;96.40;;;22.85;;
73938;SDS011;62291;47.554;8.504;2022-12-15T04:18:46;198.20;;;24.80;;
73938;SDS011;62291;47.554;8.504;2022-12-15T04:21:32;94.03;;;29.75;;
73938;SDS011;62291;47.554;8.504;2022-12-15T04:23:57;355.75;;;53.97;;
73938;SDS011;62291;47.554;8.504;2022-12-15T04:26:41;175.00;;;23.00;;
73938;SDS011;62291;47.554;8.504;2022-12-15T04:29:25;169.85;;;22.40;;
73938;SDS011;62291;47.554;8.504;2022-12-15T04:32:09;39.35;;;16.75;;
73938;SDS011;62291;47.554;8.504;2022-12-15T04:34:54;103.20;;;20.13;;
73938;SDS011;62291;47.554;8.504;2022-12-15T04:37:38;73.10;;;21.45;;
73938;SDS011;62291;47.554;8.504;2022-12-15T04:40:22;27.65;;;14.98;;
73938;SDS011;62291;47.554;8.504;2022-12-15T04:43:06;31.92;;;16.25;;
73938;SDS011;62291;47.554;8.504;2022-12-15T04:45:50;25.58;;;16.55;;
73938;SDS011;62291;47.554;8.504;2022-12-15T04:48:34;57.50;;;14.70;;
73938;SDS011;62291;47.554;8.504;2022-12-15T04:51:18;28.73;;;15.30;;
73938;SDS011;62291;47.554;8.504;2022-12-15T04:54:02;27.30;;;15.35;;
73938;SDS011;62291;47.554;8.504;2022-12-15T04:56:47;109.03;;;19.17;;
73938;SDS011;62291;47.554;8.504;2022-12-15T04:59:31;49.88;;;18.63;;
73938;SDS011;62291;47.554;8.504;2022-12-15T05:02:15;20.13;;;11.27;;
73938;SDS011;62291;47.554;8.504;2022-12-15T05:04:59;23.77;;;13.48;;
73938;SDS011;62291;47.554;8.504;2022-12-15T05:07:43;27.48;;;15.73;;
73938;SDS011;62291;47.554;8.504;2022-12-15T05:10:27;27.70;;;13.68;;
73938;SDS011;62291;47.554;8.504;2022-12-15T05:13:11;23.25;;;13.90;;
73938;SDS011;62291;47.554;8.504;2022-12-15T05:15:55;15.38;;;11.27;;
73938;SDS011;62291;47.554;8.504;2022-12-15T05:18:39;43.67;;;13.90;;
73938;SDS011;62291;47.554;8.504;2022-12-15T05:21:23;59.63;;;14.57;;
73938;SDS011;62291;47.554;8.504;2022-12-15T05:24:08;19.67;;;13.40;;
73938;SDS011;62291;47.554;8.504;2022-12-15T05:26:52;20.38;;;13.00;;
73938;SDS011;62291;47.554;8.504;2022-12-15T05:29:36;29.27;;;17.77;;
73938;SDS011;62291;47.554;8.504;2022-12-15T05:32:20;42.95;;;14.57;;
73938;SDS011;62291;47.554;8.504;2022-12-15T05:34:46;19.92;;;13.70;;
73938;SDS011;62291;47.554;8.504;2022-12-15T05:37:11;28.27;;;13.73;;
73938;SDS011;62291;47.554;8.504;2022-12-15T05:39:37;28.10;;;14.90;;
73938;SDS011;62291;47.554;8.504;2022-12-15T05:42:03;17.15;;;12.52;;
73938;SDS011;62291;47.554;8.504;2022-12-15T05:44:28;16.00;;;11.35;;
73938;SDS011;62291;47.554;8.504;2022-12-15T05:46:54;16.45;;;11.95;;
73938;SDS011;62291;47.554;8.504;2022-12-15T05:49:20;20.13;;;13.20;;
73938;SDS011;62291;47.554;8.504;2022-12-15T05:51:47;21.20;;;13.45;;
73938;SDS011;62291;47.554;8.504;2022-12-15T05:54:13;23.48;;;13.88;;
73938;SDS011;62291;47.554;8.504;2022-12-15T05:56:41;23.40;;;14.65;;
73938;SDS011;62291;47.554;8.504;2022-12-15T05:59:07;24.90;;;15.55;;
73938;SDS011;62291;47.554;8.504;2022-12-15T06:01:32;28.30;;;17.63;;
73938;SDS011;62291;47.554;8.504;2022-12-15T06:03:59;44.78;;;26.20;;
73938;SDS011;62291;47.554;8.504;2022-12-15T06:06:25;49.28;;;29.35;;
73938;SDS011;62291;47.554;8.504;2022-12-15T06:08:52;52.30;;;31.52;;
73938;SDS011;62291;47.554;8.504;2022-12-15T06:11:18;28.80;;;18.80;;
73938;SDS011;62291;47.554;8.504;2022-12-15T06:13:45;21.88;;;14.10;;
73938;SDS011;62291;47.554;8.504;2022-12-15T06:16:12;23.67;;;14.40;;
73938;SDS011;62291;47.554;8.504;2022-12-15T06:21:10;39.30;;;15.05;;
73938;SDS011;62291;47.554;8.504;2022-12-15T06:23:38;29.20;;;16.27;;
73938;SDS011;62291;47.554;8.504;2022-12-15T06:28:42;21.67;;;13.73;;
73938;SDS011;62291;47.554;8.504;2022-12-15T06:31:09;24.50;;;15.27;;
73938;SDS011;62291;47.554;8.504;2022-12-15T06:33:36;25.30;;;15.88;;
73938;SDS011;62291;47.554;8.504;2022-12-15T06:36:04;26.15;;;15.95;;
73938;SDS011;62291;47.554;8.504;2022-12-15T06:38:32;22.02;;;14.02;;
73938;SDS011;62291;47.554;8.504;2022-12-15T06:40:58;45.33;;;17.80;;
73938;SDS011;62291;47.554;8.504;2022-12-15T06:43:29;27.67;;;16.45;;
73938;SDS011;62291;47.554;8.504;2022-12-15T06:45:55;21.95;;;13.70;;
73938;SDS011;62291;47.554;8.504;2022-12-15T06:48:21;24.05;;;13.85;;
73938;SDS011;62291;47.554;8.504;2022-12-15T06:50:48;24.27;;;13.45;;
73938;SDS011;62291;47.554;8.504;2022-12-15T06:53:15;23.77;;;14.52;;
73938;SDS011;62291;47.554;8.504;2022-12-15T06:55:42;24.55;;;14.23;;
73938;SDS011;62291;47.554;8.504;2022-12-15T06:58:09;20.98;;;13.40;;
73938;SDS011;62291;47.554;8.504;2022-12-15T07:00:36;20.20;;;13.60;;
73938;SDS011;62291;47.554;8.504;2022-12-15T07:03:05;24.15;;;15.23;;
73938;SDS011;62291;47.554;8.504;2022-12-15T07:05:32;27.63;;;15.70;;
73938;SDS011;62291;47.554;8.504;2022-12-15T07:07:57;23.50;;;14.32;;
73938;SDS011;62291;47.554;8.504;2022-12-15T07:10:23;24.65;;;15.30;;
73938;SDS011;62291;47.554;8.504;2022-12-15T07:12:49;24.33;;;15.95;;
73938;SDS011;62291;47.554;8.504;2022-12-15T07:15:15;22.67;;;14.65;;
73938;SDS011;62291;47.554;8.504;2022-12-15T07:17:41;28.08;;;16.23;;
73938;SDS011;62291;47.554;8.504;2022-12-15T07:20:07;27.52;;;16.17;;
73938;SDS011;62291;47.554;8.504;2022-12-15T07:22:33;24.20;;;14.60;;
73938;SDS011;62291;47.554;8.504;2022-12-15T07:24:59;26.70;;;15.93;;
73938;SDS011;62291;47.554;8.504;2022-12-15T07:27:25;29.20;;;16.02;;
73938;SDS011;62291;47.554;8.504;2022-12-15T07:29:50;30.23;;;17.73;;
73938;SDS011;62291;47.554;8.504;2022-12-15T07:32:16;30.40;;;17.58;;
73938;SDS011;62291;47.554;8.504;2022-12-15T07:34:42;34.78;;;19.17;;
73938;SDS011;62291;47.554;8.504;2022-12-15T07:37:08;39.17;;;20.20;;
73938;SDS011;62291;47.554;8.504;2022-12-15T07:39:34;36.15;;;20.33;;
73938;SDS011;62291;47.554;8.504;2022-12-15T07:42:00;32.42;;;18.92;;
73938;SDS011;62291;47.554;8.504;2022-12-15T07:44:26;29.35;;;17.30;;
73938;SDS011;62291;47.554;8.504;2022-12-15T07:46:53;29.45;;;16.30;;
73938;SDS011;62291;47.554;8.504;2022-12-15T07:49:19;31.65;;;17.70;;
73938;SDS011;62291;47.554;8.504;2022-12-15T07:51:45;28.20;;;16.33;;
73938;SDS011;62291;47.554;8.504;2022-12-15T07:54:11;28.95;;;16.23;;
73938;SDS011;62291;47.554;8.504;2022-12-15T07:56:38;27.90;;;16.13;;
73938;SDS011;62291;47.554;8.504;2022-12-15T07:59:04;32.33;;;17.65;;
73938;SDS011;62291;47.554;8.504;2022-12-15T08:01:31;30.05;;;17.60;;
73938;SDS011;62291;47.554;8.504;2022-12-15T08:03:57;30.77;;;18.15;;
73938;SDS011;62291;47.554;8.504;2022-12-15T08:06:22;32.45;;;18.15;;
73938;SDS011;62291;47.554;8.504;2022-12-15T08:08:49;28.08;;;16.27;;
73938;SDS011;62291;47.554;8.504;2022-12-15T08:11:15;26.45;;;15.55;;
73938;SDS011;62291;47.554;8.504;2022-12-15T08:13:42;25.92;;;16.63;;
73938;SDS011;62291;47.554;8.504;2022-12-15T08:16:09;23.35;;;14.20;;
73938;SDS011;62291;47.554;8.504;2022-12-15T08:18:35;23.30;;;13.60;;
73938;SDS011;62291;47.554;8.504;2022-12-15T08:21:01;28.10;;;16.38;;
73938;SDS011;62291;47.554;8.504;2022-12-15T08:23:28;29.23;;;17.30;;
73938;SDS011;62291;47.554;8.504;2022-12-15T08:26:00;25.23;;;13.95;;
73938;SDS011;62291;47.554;8.504;2022-12-15T08:28:28;22.92;;;12.75;;
73938;SDS011;62291;47.554;8.504;2022-12-15T08:30:54;21.60;;;12.05;;
73938;SDS011;62291;47.554;8.504;2022-12-15T08:33:20;24.45;;;14.82;;
73938;SDS011;62291;47.554;8.504;2022-12-15T08:35:45;24.77;;;15.70;;
73938;SDS011;62291;47.554;8.504;2022-12-15T08:38:11;21.95;;;13.82;;
73938;SDS011;62291;47.554;8.504;2022-12-15T08:40:37;26.55;;;16.33;;
73938;SDS011;62291;47.554;8.504;2022-12-15T08:43:03;27.15;;;15.25;;
73938;SDS011;62291;47.554;8.504;2022-12-15T08:45:28;35.33;;;17.67;;
73938;SDS011;62291;47.554;8.504;2022-12-15T08:47:54;31.52;;;18.23;;
73938;SDS011;62291;47.554;8.504;2022-12-15T08:50:20;30.50;;;18.85;;
73938;SDS011;62291;47.554;8.504;2022-12-15T08:52:46;30.55;;;18.83;;
73938;SDS011;62291;47.554;8.504;2022-12-15T08:55:12;29.45;;;18.00;;
73938;SDS011;62291;47.554;8.504;2022-12-15T08:57:37;35.58;;;20.83;;
73938;SDS011;62291;47.554;8.504;2022-12-15T09:00:04;35.22;;;21.40;;
73938;SDS011;62291;47.554;8.504;2022-12-15T09:02:31;34.88;;;21.55;;
73938;SDS011;62291;47.554;8.504;2022-12-15T09:04:56;35.67;;;21.17;;
73938;SDS011;62291;47.554;8.504;2022-12-15T09:07:22;34.30;;;20.73;;
73938;SDS011;62291;47.554;8.504;2022-12-15T09:09:48;31.05;;;19.25;;
73938;SDS011;62291;47.554;8.504;2022-12-15T09:12:13;31.50;;;19.40;;
73938;SDS011;62291;47.554;8.504;2022-12-15T09:14:39;30.38;;;17.35;;
73938;SDS011;62291;47.554;8.504;2022-12-15T09:17:05;26.42;;;15.63;;
73938;SDS011;62291;47.554;8.504;2022-12-15T09:19:30;28.45;;;18.52;;
73938;SDS011;62291;47.554;8.504;2022-12-15T09:21:56;30.92;;;20.00;;
73938;SDS011;62291;47.554;8.504;2022-12-15T09:24:22;32.75;;;19.75;;
73938;SDS011;62291;47.554;8.504;2022-12-15T09:26:48;28.90;;;19.95;;
73938;SDS011;62291;47.554;8.504;2022-12-15T09:29:14;30.67;;;20.45;;
73938;SDS011;62291;47.554;8.504;2022-12-15T09:31:40;31.55;;;19.92;;
73938;SDS011;62291;47.554;8.504;2022-12-15T09:34:10;30.02;;;19.55;;
73938;SDS011;62291;47.554;8.504;2022-12-15T09:36:39;30.70;;;20.05;;
73938;SDS011;62291;47.554;8.504;2022-12-15T09:39:05;31.42;;;20.27;;
73938;SDS011;62291;47.554;8.504;2022-12-15T09:41:32;30.75;;;20.50;;
73938;SDS011;62291;47.554;8.504;2022-12-15T09:52:18;31.55;;;18.90;;
73938;SDS011;62291;47.554;8.504;2022-12-15T09:54:56;31.95;;;20.67;;
73938;SDS011;62291;47.554;8.504;2022-12-15T09:57:36;33.53;;;20.73;;
73938;SDS011;62291;47.554;8.504;2022-12-15T10:03:04;31.55;;;20.13;;
73938;SDS011;62291;47.554;8.504;2022-12-15T10:08:13;33.03;;;21.55;;
73938;SDS011;62291;47.554;8.504;2022-12-15T10:21:56;38.40;;;22.90;;
73938;SDS011;62291;47.554;8.504;2022-12-15T10:24:23;35.63;;;22.55;;
73938;SDS011;62291;47.554;8.504;2022-12-15T10:27:07;32.78;;;22.27;;
73938;SDS011;62291;47.554;8.504;2022-12-15T10:29:44;38.78;;;22.23;;
73938;SDS011;62291;47.554;8.504;2022-12-15T10:32:18;37.30;;;23.70;;
73938;SDS011;62291;47.554;8.504;2022-12-15T10:34:48;33.15;;;20.40;;
73938;SDS011;62291;47.554;8.504;2022-12-15T10:37:18;37.67;;;22.60;;
73938;SDS011;62291;47.554;8.504;2022-12-15T10:39:46;38.22;;;22.90;;
73938;SDS011;62291;47.554;8.504;2022-12-15T10:42:15;37.83;;;22.77;;
73938;SDS011;62291;47.554;8.504;2022-12-15T10:44:42;34.70;;;20.50;;
73938;SDS011;62291;47.554;8.504;2022-12-15T10:47:20;37.10;;;23.92;;
73938;SDS011;62291;47.554;8.504;2022-12-15T10:49:50;38.75;;;24.60;;
73938;SDS011;62291;47.554;8.504;2022-12-15T10:52:20;41.30;;;24.23;;
73938;SDS011;62291;47.554;8.504;2022-12-15T10:58:00;38.30;;;24.40;;
73938;SDS011;62291;47.554;8.504;2022-12-15T11:00:28;41.20;;;25.15;;
73938;SDS011;62291;47.554;8.504;2022-12-15T11:02:56;40.10;;;25.13;;
73938;SDS011;62291;47.554;8.504;2022-12-15T11:05:26;41.38;;;25.00;;
73938;SDS011;62291;47.554;8.504;2022-12-15T11:07:52;40.22;;;24.05;;
73938;SDS011;62291;47.554;8.504;2022-12-15T11:10:24;39.90;;;25.40;;
73938;SDS011;62291;47.554;8.504;2022-12-15T11:20:52;41.90;;;23.95;;
73938;SDS011;62291;47.554;8.504;2022-12-15T11:23:27;43.72;;;24.80;;
73938;SDS011;62291;47.554;8.504;2022-12-15T11:25:59;43.08;;;24.48;;
73938;SDS011;62291;47.554;8.504;2022-12-15T11:28:38;42.72;;;24.98;;
73938;SDS011;62291;47.554;8.504;2022-12-15T11:33:50;46.78;;;27.08;;
73938;SDS011;62291;47.554;8.504;2022-12-15T11:38:54;44.08;;;27.30;;
73938;SDS011;62291;47.554;8.504;2022-12-15T11:41:35;40.17;;;23.52;;
73938;SDS011;62291;47.554;8.504;2022-12-15T11:49:51;41.80;;;24.00;;
73938;SDS011;62291;47.554;8.504;2022-12-15T11:58:04;38.38;;;23.88;;
73938;SDS011;62291;47.554;8.504;2022-12-15T12:00:56;39.30;;;25.15;;
73938;SDS011;62291;47.554;8.504;2022-12-15T12:03:38;37.58;;;22.70;;
73938;SDS011;62291;47.554;8.504;2022-12-15T12:14:21;36.45;;;20.70;;
73938;SDS011;62291;47.554;8.504;2022-12-15T12:20:03;39.83;;;20.60;;
73938;SDS011;62291;47.554;8.504;2022-12-15T12:22:47;34.22;;;18.67;;
73938;SDS011;62291;47.554;8.504;2022-12-15T12:25:30;37.92;;;22.75;;
73938;SDS011;62291;47.554;8.504;2022-12-15T12:28:05;41.70;;;24.65;;
73938;SDS011;62291;47.554;8.504;2022-12-15T12:30:45;40.78;;;24.02;;
73938;SDS011;62291;47.554;8.504;2022-12-15T12:38:27;40.15;;;24.58;;
73938;SDS011;62291;47.554;8.504;2022-12-15T12:43:32;46.03;;;25.10;;
73938;SDS011;62291;47.554;8.504;2022-12-15T12:51:58;42.97;;;25.52;;
73938;SDS011;62291;47.554;8.504;2022-12-15T13:04:49;45.40;;;24.35;;
73938;SDS011;62291;47.554;8.504;2022-12-15T13:07:34;47.55;;;26.27;;
73938;SDS011;62291;47.554;8.504;2022-12-15T13:12:50;48.75;;;24.92;;
73938;SDS011;62291;47.554;8.504;2022-12-15T13:20:29;50.50;;;26.80;;
73938;SDS011;62291;47.554;8.504;2022-12-15T13:25:42;52.17;;;29.05;;
73938;SDS011;62291;47.554;8.504;2022-12-15T13:28:16;51.85;;;28.00;;
73938;SDS011;62291;47.554;8.504;2022-12-15T13:34:09;50.85;;;28.05;;
73938;SDS011;62291;47.554;8.504;2022-12-15T13:41:37;45.53;;;24.77;;
73938;SDS011;62291;47.554;8.504;2022-12-15T13:44:10;46.08;;;22.58;;
73938;SDS011;62291;47.554;8.504;2022-12-15T13:46:44;50.33;;;25.17;;
73938;SDS011;62291;47.554;8.504;2022-12-15T13:49:12;50.47;;;24.98;;
73938;SDS011;62291;47.554;8.504;2022-12-15T13:51:46;51.65;;;27.13;;
73938;SDS011;62291;47.554;8.504;2022-12-15T13:54:17;53.75;;;28.67;;
73938;SDS011;62291;47.554;8.504;2022-12-15T14:01:57;51.40;;;27.25;;
73938;SDS011;62291;47.554;8.504;2022-12-15T14:04:24;54.75;;;28.98;;
73938;SDS011;62291;47.554;8.504;2022-12-15T14:09:24;51.03;;;25.13;;
73938;SDS011;62291;47.554;8.504;2022-12-15T14:12:03;60.17;;;31.17;;
73938;SDS011;62291;47.554;8.504;2022-12-15T14:14:36;58.35;;;30.35;;
73938;SDS011;62291;47.554;8.504;2022-12-15T14:17:07;60.67;;;31.25;;
73938;SDS011;62291;47.554;8.504;2022-12-15T14:19:39;50.58;;;22.40;;
73938;SDS011;62291;47.554;8.504;2022-12-15T14:22:32;60.40;;;30.17;;
73938;SDS011;62291;47.554;8.504;2022-12-15T14:24:59;52.90;;;24.30;;
73938;SDS011;62291;47.554;8.504;2022-12-15T14:27:28;56.25;;;28.45;;
73938;SDS011;62291;47.554;8.504;2022-12-15T14:30:11;61.38;;;32.33;;
73938;SDS011;62291;47.554;8.504;2022-12-15T14:32:46;53.47;;;23.27;;
73938;SDS011;62291;47.554;8.504;2022-12-15T14:35:23;64.63;;;33.83;;
73938;SDS011;62291;47.554;8.504;2022-12-15T14:37:54;69.75;;;33.13;;
73938;SDS011;62291;47.554;8.504;2022-12-15T14:40:22;62.90;;;31.67;;
73938;SDS011;62291;47.554;8.504;2022-12-15T14:42:49;61.83;;;32.38;;
73938;SDS011;62291;47.554;8.504;2022-12-15T14:45:35;58.33;;;25.30;;
73938;SDS011;62291;47.554;8.504;2022-12-15T14:48:06;64.50;;;32.30;;
73938;SDS011;62291;47.554;8.504;2022-12-15T14:50:33;57.13;;;27.48;;
73938;SDS011;62291;47.554;8.504;2022-12-15T14:53:10;61.90;;;31.20;;
73938;SDS011;62291;47.554;8.504;2022-12-15T14:55:40;58.00;;;29.73;;
73938;SDS011;62291;47.554;8.504;2022-12-15T15:00:51;63.63;;;29.25;;
73938;SDS011;62291;47.554;8.504;2022-12-15T15:03:19;73.38;;;37.58;;
73938;SDS011;62291;47.554;8.504;2022-12-15T15:05:59;62.90;;;26.77;;
73938;SDS011;62291;47.554;8.504;2022-12-15T15:08:35;77.93;;;37.45;;
73938;SDS011;62291;47.554;8.504;2022-12-15T15:14:04;66.95;;;27.20;;
73938;SDS011;62291;47.554;8.504;2022-12-15T15:16:36;79.28;;;36.83;;
73938;SDS011;62291;47.554;8.504;2022-12-15T15:19:02;77.90;;;33.05;;
73938;SDS011;62291;47.554;8.504;2022-12-15T15:21:29;72.05;;;29.95;;
73938;SDS011;62291;47.554;8.504;2022-12-15T15:26:36;82.75;;;35.13;;
73938;SDS011;62291;47.554;8.504;2022-12-15T15:29:03;84.13;;;34.88;;
73938;SDS011;62291;47.554;8.504;2022-12-15T15:31:51;92.88;;;40.63;;
73938;SDS011;62291;47.554;8.504;2022-12-15T15:34:17;89.97;;;38.95;;
73938;SDS011;62291;47.554;8.504;2022-12-15T15:36:42;94.57;;;41.53;;
73938;SDS011;62291;47.554;8.504;2022-12-15T15:39:09;89.38;;;38.15;;
73938;SDS011;62291;47.554;8.504;2022-12-15T15:41:38;87.70;;;35.05;;
73938;SDS011;62291;47.554;8.504;2022-12-15T15:44:05;84.60;;;34.38;;
73938;SDS011;62291;47.554;8.504;2022-12-15T15:46:42;90.45;;;39.58;;
73938;SDS011;62291;47.554;8.504;2022-12-15T15:49:12;84.88;;;36.22;;
73938;SDS011;62291;47.554;8.504;2022-12-15T15:51:41;96.55;;;41.17;;
73938;SDS011;62291;47.554;8.504;2022-12-15T15:54:15;95.95;;;40.53;;
73938;SDS011;62291;47.554;8.504;2022-12-15T15:56:44;99.65;;;41.28;;
73938;SDS011;62291;47.554;8.504;2022-12-15T15:59:10;104.45;;;41.95;;
73938;SDS011;62291;47.554;8.504;2022-12-15T16:01:38;95.90;;;39.75;;
73938;SDS011;62291;47.554;8.504;2022-12-15T16:04:03;99.90;;;40.58;;
73938;SDS011;62291;47.554;8.504;2022-12-15T16:06:30;96.90;;;36.67;;
73938;SDS011;62291;47.554;8.504;2022-12-15T16:08:56;103.63;;;43.33;;
73938;SDS011;62291;47.554;8.504;2022-12-15T16:11:26;102.00;;;41.70;;
73938;SDS011;62291;47.554;8.504;2022-12-15T16:13:56;101.47;;;41.35;;
73938;SDS011;62291;47.554;8.504;2022-12-15T16:16:23;95.50;;;38.72;;
73938;SDS011;62291;47.554;8.504;2022-12-15T16:18:52;105.82;;;39.75;;
73938;SDS011;62291;47.554;8.504;2022-12-15T16:21:17;104.30;;;39.45;;
73938;SDS011;62291;47.554;8.504;2022-12-15T16:23:46;111.18;;;40.42;;
73938;SDS011;62291;47.554;8.504;2022-12-15T16:26:13;102.38;;;42.85;;
73938;SDS011;62291;47.554;8.504;2022-12-15T16:28:41;103.68;;;43.20;;
73938;SDS011;62291;47.554;8.504;2022-12-15T16:31:08;111.90;;;40.97;;
73938;SDS011;62291;47.554;8.504;2022-12-15T16:33:40;106.70;;;41.20;;
73938;SDS011;62291;47.554;8.504;2022-12-15T16:36:10;108.45;;;39.05;;
73938;SDS011;62291;47.554;8.504;2022-12-15T16:38:37;97.28;;;37.75;;
73938;SDS011;62291;47.554;8.504;2022-12-15T16:41:04;95.25;;;39.88;;
73938;SDS011;62291;47.554;8.504;2022-12-15T16:43:30;103.35;;;41.70;;
73938;SDS011;62291;47.554;8.504;2022-12-15T16:45:57;100.10;;;39.28;;
73938;SDS011;62291;47.554;8.504;2022-12-15T16:48:22;93.65;;;34.10;;
73938;SDS011;62291;47.554;8.504;2022-12-15T16:50:49;94.43;;;40.55;;
73938;SDS011;62291;47.554;8.504;2022-12-15T16:55:51;96.82;;;40.97;;
73938;SDS011;62291;47.554;8.504;2022-12-15T16:58:19;87.40;;;36.60;;
73938;SDS011;62291;47.554;8.504;2022-12-15T17:00:45;76.30;;;27.80;;
73938;SDS011;62291;47.554;8.504;2022-12-15T17:03:13;83.35;;;36.15;;
73938;SDS011;62291;47.554;8.504;2022-12-15T17:05:40;87.20;;;39.05;;
73938;SDS011;62291;47.554;8.504;2022-12-15T17:08:09;85.22;;;38.55;;
73938;SDS011;62291;47.554;8.504;2022-12-15T17:10:45;85.90;;;34.80;;
73938;SDS011;62291;47.554;8.504;2022-12-15T17:13:16;80.72;;;33.38;;
73938;SDS011;62291;47.554;8.504;2022-12-15T17:15:51;84.57;;;38.65;;
73938;SDS011;62291;47.554;8.504;2022-12-15T17:18:18;87.30;;;37.45;;
73938;SDS011;62291;47.554;8.504;2022-12-15T17:20:44;90.57;;;37.85;;
73938;SDS011;62291;47.554;8.504;2022-12-15T17:23:12;97.63;;;41.95;;